Terminal Aerodrome Forecast
Issued by NWS

Home | Current Version | Previous Version | Text Only | Print | Product List | Glossary On
Versions: 1 2 3 4 5 6 7 8 9 10 11 12
000
FTUS42 KMLB 181141
TAFTIX
TAF
KTIX 181141Z 1812/1912 VRB04KT P6SM FEW005 OVC120
      TEMPO 1812/1813 5SM BR BKN005
     FM181400 25003KT P6SM SCT020 BKN250
     FM181900 05009KT P6SM VCSH BKN030 BKN100
     FM190000 VRB03KT P6SM SCT040 SCT080 BKN250=

USA.gov is the U.S. government's official web portal to all federal, state and local government web resources and services.